sensor_id;sensor_type;location;lat;lon;timestamp;pressure;altitude;pressure_sealevel;temperature;humidity
71344;BME280;59146;43.850;25.948;2023-02-23T00:01:36;101154.28;;;6.08;64.76
71344;BME280;59146;43.850;25.948;2023-02-23T00:04:03;101119.97;;;6.00;64.63
71344;BME280;59146;43.850;25.948;2023-02-23T00:06:30;101110.00;;;5.88;64.59
71344;BME280;59146;43.850;25.948;2023-02-23T00:08:55;101087.03;;;5.76;64.55
71344;BME280;59146;43.850;25.948;2023-02-23T00:11:22;101152.31;;;6.16;64.02
71344;BME280;59146;43.850;25.948;2023-02-23T00:13:49;101143.78;;;6.12;63.93
71344;BME280;59146;43.850;25.948;2023-02-23T00:16:17;101150.69;;;6.13;64.05
71344;BME280;59146;43.850;25.948;2023-02-23T00:18:54;101069.06;;;5.97;62.84
71344;BME280;59146;43.850;25.948;2023-02-23T00:21:25;101134.31;;;6.37;62.51
71344;BME280;59146;43.850;25.948;2023-02-23T00:23:58;101061.53;;;5.90;62.59
71344;BME280;59146;43.850;25.948;2023-02-23T00:26:26;101148.38;;;6.30;62.52
71344;BME280;59146;43.850;25.948;2023-02-23T00:28:55;101086.94;;;5.79;62.94
71344;BME280;59146;43.850;25.948;2023-02-23T00:31:22;101158.19;;;5.95;63.72
71344;BME280;59146;43.850;25.948;2023-02-23T00:33:53;101123.78;;;5.90;63.21
71344;BME280;59146;43.850;25.948;2023-02-23T00:36:20;101151.69;;;6.09;63.07
71344;BME280;59146;43.850;25.948;2023-02-23T00:38:46;101127.81;;;5.98;63.13
71344;BME280;59146;43.850;25.948;2023-02-23T00:41:15;101078.59;;;5.41;63.70
71344;BME280;59146;43.850;25.948;2023-02-23T00:43:48;101127.69;;;5.46;64.34
71344;BME280;59146;43.850;25.948;2023-02-23T00:46:18;101059.25;;;5.24;64.23
71344;BME280;59146;43.850;25.948;2023-02-23T00:48:46;101141.38;;;5.79;63.66
71344;BME280;59146;43.850;25.948;2023-02-23T00:51:12;101139.94;;;5.69;64.23
71344;BME280;59146;43.850;25.948;2023-02-23T00:53:37;101113.34;;;5.34;64.73
71344;BME280;59146;43.850;25.948;2023-02-23T00:56:04;101126.97;;;5.41;65.17
71344;BME280;59146;43.850;25.948;2023-02-23T00:58:30;101062.09;;;5.16;64.84
71344;BME280;59146;43.850;25.948;2023-02-23T01:00:56;101073.19;;;5.21;64.84
71344;BME280;59146;43.850;25.948;2023-02-23T01:03:24;101043.53;;;5.02;64.94
71344;BME280;59146;43.850;25.948;2023-02-23T01:05:49;101094.28;;;5.08;65.99
71344;BME280;59146;43.850;25.948;2023-02-23T01:08:16;101140.16;;;5.33;66.34
71344;BME280;59146;43.850;25.948;2023-02-23T01:10:43;101133.25;;;5.32;66.43
71344;BME280;59146;43.850;25.948;2023-02-23T01:13:09;101098.97;;;5.24;66.33
71344;BME280;59146;43.850;25.948;2023-02-23T01:15:42;101061.19;;;4.88;66.98
71344;BME280;59146;43.850;25.948;2023-02-23T01:18:11;101061.47;;;4.79;67.21
71344;BME280;59146;43.850;25.948;2023-02-23T01:20:37;101094.41;;;5.03;67.40
71344;BME280;59146;43.850;25.948;2023-02-23T01:23:06;101141.72;;;5.39;66.73
71344;BME280;59146;43.850;25.948;2023-02-23T01:25:32;101060.94;;;4.97;66.52
71344;BME280;59146;43.850;25.948;2023-02-23T01:27:58;101096.50;;;5.20;66.29
71344;BME280;59146;43.850;25.948;2023-02-23T01:30:23;101102.91;;;5.08;66.74
71344;BME280;59146;43.850;25.948;2023-02-23T01:32:49;101138.84;;;5.19;67.03
71344;BME280;59146;43.850;25.948;2023-02-23T01:35:15;101083.25;;;5.01;66.90
71344;BME280;59146;43.850;25.948;2023-02-23T01:37:41;101133.63;;;5.49;66.58
71344;BME280;59146;43.850;25.948;2023-02-23T01:40:14;101106.59;;;5.29;66.48
71344;BME280;59146;43.850;25.948;2023-02-23T01:42:44;101119.06;;;5.16;67.42
71344;BME280;59146;43.850;25.948;2023-02-23T01:45:30;101141.44;;;5.48;66.93
71344;BME280;59146;43.850;25.948;2023-02-23T01:48:02;101117.22;;;5.49;66.39
71344;BME280;59146;43.850;25.948;2023-02-23T01:50:31;101131.44;;;5.65;66.26
71344;BME280;59146;43.850;25.948;2023-02-23T01:53:00;101099.63;;;5.31;66.60
71344;BME280;59146;43.850;25.948;2023-02-23T01:55:26;101058.44;;;4.94;67.15
71344;BME280;59146;43.850;25.948;2023-02-23T01:57:56;101032.63;;;4.91;67.10
71344;BME280;59146;43.850;25.948;2023-02-23T02:00:25;101061.28;;;5.14;66.60
71344;BME280;59146;43.850;25.948;2023-02-23T02:02:51;101134.84;;;5.65;66.21
71344;BME280;59146;43.850;25.948;2023-02-23T02:05:17;101124.66;;;5.59;66.41
71344;BME280;59146;43.850;25.948;2023-02-23T02:07:45;101150.50;;;5.62;66.85
71344;BME280;59146;43.850;25.948;2023-02-23T02:10:12;101108.75;;;5.44;66.70
71344;BME280;59146;43.850;25.948;2023-02-23T02:12:38;101077.59;;;5.45;65.98
71344;BME280;59146;43.850;25.948;2023-02-23T02:15:06;101078.69;;;5.66;65.53
71344;BME280;59146;43.850;25.948;2023-02-23T02:17:42;101132.28;;;5.95;65.37
71344;BME280;59146;43.850;25.948;2023-02-23T02:45:27;101061.81;;;5.25;66.41
71344;BME280;59146;43.850;25.948;2023-02-23T02:48:00;101132.34;;;5.92;66.12
71344;BME280;59146;43.850;25.948;2023-02-23T02:50:44;101141.97;;;6.14;65.79
71344;BME280;59146;43.850;25.948;2023-02-23T02:53:19;100983.41;;;5.20;65.42
71344;BME280;59146;43.850;25.948;2023-02-23T02:55:48;101022.91;;;5.27;66.32
71344;BME280;59146;43.850;25.948;2023-02-23T02:58:16;100956.09;;;4.82;66.44
71344;BME280;59146;43.850;25.948;2023-02-23T03:00:47;101094.63;;;5.82;66.19
71344;BME280;59146;43.850;25.948;2023-02-23T03:03:38;101130.47;;;6.23;65.39
71344;BME280;59146;43.850;25.948;2023-02-23T03:06:30;101088.53;;;5.83;65.49
71344;BME280;59146;43.850;25.948;2023-02-23T03:09:43;101132.72;;;5.80;66.53
71344;BME280;59146;43.850;25.948;2023-02-23T03:15:32;101151.38;;;6.18;65.86
71344;BME280;59146;43.850;25.948;2023-02-23T03:21:23;101103.59;;;5.72;66.46
71344;BME280;59146;43.850;25.948;2023-02-23T03:27:27;101168.19;;;6.07;66.27
71344;BME280;59146;43.850;25.948;2023-02-23T03:30:24;101109.16;;;5.87;66.04
71344;BME280;59146;43.850;25.948;2023-02-23T03:33:29;101108.84;;;5.69;66.79
71344;BME280;59146;43.850;25.948;2023-02-23T03:36:18;101115.19;;;5.88;66.50
71344;BME280;59146;43.850;25.948;2023-02-23T03:39:14;101176.63;;;6.39;65.94
71344;BME280;59146;43.850;25.948;2023-02-23T03:42:03;101149.47;;;6.23;65.63
71344;BME280;59146;43.850;25.948;2023-02-23T03:44:49;101115.34;;;5.82;66.33
71344;BME280;59146;43.850;25.948;2023-02-23T03:47:37;101156.09;;;6.06;66.77
71344;BME280;59146;43.850;25.948;2023-02-23T03:50:47;101180.88;;;6.42;65.80
71344;BME280;59146;43.850;25.948;2023-02-23T03:53:41;101150.88;;;6.33;65.50
71344;BME280;59146;43.850;25.948;2023-02-23T03:56:29;101088.03;;;5.72;66.21
71344;BME280;59146;43.850;25.948;2023-02-23T03:59:17;101181.09;;;6.08;67.22
71344;BME280;59146;43.850;25.948;2023-02-23T04:02:03;101151.56;;;6.12;66.51
71344;BME280;59146;43.850;25.948;2023-02-23T04:04:49;101151.34;;;6.20;65.63
71344;BME280;59146;43.850;25.948;2023-02-23T04:07:35;101114.28;;;5.89;66.20
71344;BME280;59146;43.850;25.948;2023-02-23T04:10:22;101164.34;;;5.91;67.33
71344;BME280;59146;43.850;25.948;2023-02-23T04:13:16;101119.94;;;5.74;67.46
71344;BME280;59146;43.850;25.948;2023-02-23T04:15:58;101119.69;;;5.81;66.78
71344;BME280;59146;43.850;25.948;2023-02-23T04:18:27;101155.69;;;6.18;66.40
71344;BME280;59146;43.850;25.948;2023-02-23T04:20:55;101120.72;;;5.48;68.06
71344;BME280;59146;43.850;25.948;2023-02-23T04:23:21;101128.63;;;5.43;68.95
71344;BME280;59146;43.850;25.948;2023-02-23T04:25:50;101122.50;;;5.46;68.85
71344;BME280;59146;43.850;25.948;2023-02-23T04:28:16;101188.47;;;5.94;68.54
71344;BME280;59146;43.850;25.948;2023-02-23T04:30:42;101128.56;;;5.45;68.49
71344;BME280;59146;43.850;25.948;2023-02-23T04:33:08;101182.47;;;5.63;69.03
71344;BME280;59146;43.850;25.948;2023-02-23T04:35:33;101126.78;;;5.18;69.44
71344;BME280;59146;43.850;25.948;2023-02-23T04:37:59;101194.03;;;5.51;70.10
71344;BME280;59146;43.850;25.948;2023-02-23T04:40:25;101078.53;;;4.84;69.82
71344;BME280;59146;43.850;25.948;2023-02-23T04:42:52;101143.19;;;5.18;69.64
71344;BME280;59146;43.850;25.948;2023-02-23T04:45:18;101126.13;;;4.80;70.81
71344;BME280;59146;43.850;25.948;2023-02-23T04:47:43;101156.53;;;5.03;70.83
71344;BME280;59146;43.850;25.948;2023-02-23T04:50:10;101200.44;;;5.38;70.32
71344;BME280;59146;43.850;25.948;2023-02-23T04:52:36;101165.34;;;5.28;69.71
71344;BME280;59146;43.850;25.948;2023-02-23T04:55:04;101208.19;;;5.40;69.68
71344;BME280;59146;43.850;25.948;2023-02-23T04:57:31;101145.72;;;4.89;69.70
71344;BME280;59146;43.850;25.948;2023-02-23T04:59:57;101165.22;;;5.02;69.62
71344;BME280;59146;43.850;25.948;2023-02-23T05:02:22;101188.13;;;5.17;69.17
71344;BME280;59146;43.850;25.948;2023-02-23T05:04:48;101171.88;;;5.11;68.99
71344;BME280;59146;43.850;25.948;2023-02-23T05:07:13;101213.84;;;5.23;69.45
71344;BME280;59146;43.850;25.948;2023-02-23T05:09:39;101152.31;;;4.68;70.08
71344;BME280;59146;43.850;25.948;2023-02-23T05:12:04;101224.16;;;5.25;69.49
71344;BME280;59146;43.850;25.948;2023-02-23T05:14:30;101170.41;;;5.02;69.10
71344;BME280;59146;43.850;25.948;2023-02-23T05:16:55;101154.94;;;4.99;68.91
71344;BME280;59146;43.850;25.948;2023-02-23T05:19:21;101222.31;;;5.28;68.90
71344;BME280;59146;43.850;25.948;2023-02-23T05:21:46;101197.97;;;5.05;69.61
71344;BME280;59146;43.850;25.948;2023-02-23T05:24:12;101162.13;;;4.88;69.62
71344;BME280;59146;43.850;25.948;2023-02-23T05:26:37;101162.28;;;5.14;68.79
71344;BME280;59146;43.850;25.948;2023-02-23T05:29:03;101194.31;;;5.42;68.41
71344;BME280;59146;43.850;25.948;2023-02-23T05:31:30;101213.81;;;5.54;68.16
71344;BME280;59146;43.850;25.948;2023-02-23T05:33:56;101241.66;;;5.47;68.89
71344;BME280;59146;43.850;25.948;2023-02-23T05:36:21;101253.16;;;5.37;69.57
71344;BME280;59146;43.850;25.948;2023-02-23T05:38:47;101257.13;;;5.50;69.19
71344;BME280;59146;43.850;25.948;2023-02-23T05:41:19;101235.59;;;5.48;68.63
71344;BME280;59146;43.850;25.948;2023-02-23T05:43:46;101187.78;;;5.28;68.47
71344;BME280;59146;43.850;25.948;2023-02-23T05:46:17;101183.69;;;4.89;69.26
71344;BME280;59146;43.850;25.948;2023-02-23T05:48:43;101267.91;;;5.35;69.86
71344;BME280;59146;43.850;25.948;2023-02-23T05:51:11;101208.91;;;5.14;69.43
71344;BME280;59146;43.850;25.948;2023-02-23T05:53:37;101250.84;;;5.57;68.87
71344;BME280;59146;43.850;25.948;2023-02-23T05:56:04;101222.56;;;5.50;68.50
71344;BME280;59146;43.850;25.948;2023-02-23T05:58:30;101257.56;;;5.64;68.23
71344;BME280;59146;43.850;25.948;2023-02-23T06:00:55;101225.81;;;5.27;68.95
71344;BME280;59146;43.850;25.948;2023-02-23T06:03:21;101264.53;;;5.62;68.85
71344;BME280;59146;43.850;25.948;2023-02-23T06:05:55;101289.78;;;5.88;68.11
71344;BME280;59146;43.850;25.948;2023-02-23T06:08:22;101274.72;;;5.99;67.39
71344;BME280;59146;43.850;25.948;2023-02-23T06:10:49;101230.22;;;5.54;67.65
71344;BME280;59146;43.850;25.948;2023-02-23T06:13:14;101257.81;;;5.55;68.23
71344;BME280;59146;43.850;25.948;2023-02-23T06:15:40;101253.84;;;5.44;68.47
71344;BME280;59146;43.850;25.948;2023-02-23T06:18:06;101266.09;;;5.68;68.04
71344;BME280;59146;43.850;25.948;2023-02-23T06:20:35;101308.13;;;6.10;67.25
71344;BME280;59146;43.850;25.948;2023-02-23T06:23:01;101308.97;;;6.39;66.38
71344;BME280;59146;43.850;25.948;2023-02-23T06:25:27;101309.16;;;6.33;66.49
71344;BME280;59146;43.850;25.948;2023-02-23T06:27:52;101284.47;;;5.93;67.05
71344;BME280;59146;43.850;25.948;2023-02-23T06:30:19;101289.63;;;5.93;67.63
71344;BME280;59146;43.850;25.948;2023-02-23T06:32:45;101297.25;;;6.26;66.91
71344;BME280;59146;43.850;25.948;2023-02-23T06:35:10;101330.47;;;6.71;66.01
71344;BME280;59146;43.850;25.948;2023-02-23T06:37:36;101307.88;;;6.47;65.96
71344;BME280;59146;43.850;25.948;2023-02-23T06:40:02;101335.56;;;6.74;65.98
71344;BME280;59146;43.850;25.948;2023-02-23T06:42:28;101305.81;;;6.58;66.03
71344;BME280;59146;43.850;25.948;2023-02-23T06:44:53;101354.53;;;7.03;65.44
71344;BME280;59146;43.850;25.948;2023-02-23T06:47:19;101320.00;;;7.00;64.55
71344;BME280;59146;43.850;25.948;2023-02-23T06:49:44;101273.22;;;6.48;65.14
71344;BME280;59146;43.850;25.948;2023-02-23T06:52:10;101155.81;;;5.87;65.87
71344;BME280;59146;43.850;25.948;2023-02-23T06:54:38;101219.50;;;6.51;64.69
71344;BME280;59146;43.850;25.948;2023-02-23T06:57:04;101332.03;;;7.29;64.01
71344;BME280;59146;43.850;25.948;2023-02-23T06:59:30;101299.47;;;6.92;64.69
71344;BME280;59146;43.850;25.948;2023-02-23T07:01:55;101255.59;;;6.59;65.40
71344;BME280;59146;43.850;25.948;2023-02-23T07:04:21;101331.69;;;7.38;64.58
71344;BME280;59146;43.850;25.948;2023-02-23T07:06:46;101284.59;;;7.47;62.79
71344;BME280;59146;43.850;25.948;2023-02-23T07:09:12;101289.09;;;7.42;62.96
71344;BME280;59146;43.850;25.948;2023-02-23T07:11:40;101290.53;;;7.26;63.47
71344;BME280;59146;43.850;25.948;2023-02-23T07:14:06;101253.75;;;7.13;63.14
71344;BME280;59146;43.850;25.948;2023-02-23T07:16:33;101282.69;;;7.52;62.94
71344;BME280;59146;43.850;25.948;2023-02-23T07:18:59;101298.00;;;7.59;62.94
71344;BME280;59146;43.850;25.948;2023-02-23T07:21:24;101289.22;;;7.39;63.01
71344;BME280;59146;43.850;25.948;2023-02-23T07:23:49;101357.78;;;7.84;63.27
71344;BME280;59146;43.850;25.948;2023-02-23T07:26:15;101216.84;;;7.28;62.28
71344;BME280;59146;43.850;25.948;2023-02-23T07:28:43;101315.16;;;8.11;61.47
71344;BME280;59146;43.850;25.948;2023-02-23T07:31:08;101296.06;;;7.89;61.68
71344;BME280;59146;43.850;25.948;2023-02-23T07:33:34;101290.06;;;7.64;62.23
71344;BME280;59146;43.850;25.948;2023-02-23T07:36:00;101330.31;;;8.23;61.75
71344;BME280;59146;43.850;25.948;2023-02-23T07:38:25;101320.66;;;8.50;60.59
71344;BME280;59146;43.850;25.948;2023-02-23T07:40:51;101324.31;;;8.66;60.00
71344;BME280;59146;43.850;25.948;2023-02-23T07:43:17;101320.88;;;8.44;60.51
71344;BME280;59146;43.850;25.948;2023-02-23T07:45:47;101355.94;;;8.35;62.00
71344;BME280;59146;43.850;25.948;2023-02-23T07:48:13;101363.34;;;8.89;60.47
71344;BME280;59146;43.850;25.948;2023-02-23T07:50:39;101366.56;;;9.16;59.71
71344;BME280;59146;43.850;25.948;2023-02-23T07:53:05;101319.50;;;8.99;59.02
71344;BME280;59146;43.850;25.948;2023-02-23T07:55:30;101379.13;;;9.28;59.63
71344;BME280;59146;43.850;25.948;2023-02-23T07:57:56;101380.31;;;9.41;59.38
71344;BME280;59146;43.850;25.948;2023-02-23T08:00:22;101345.34;;;9.45;58.65
71344;BME280;59146;43.850;25.948;2023-02-23T08:02:49;101353.78;;;9.72;57.91
71344;BME280;59146;43.850;25.948;2023-02-23T08:05:15;101330.94;;;8.74;60.20
71344;BME280;59146;43.850;25.948;2023-02-23T08:07:40;101379.34;;;9.02;60.77
71344;BME280;59146;43.850;25.948;2023-02-23T08:10:06;101337.00;;;9.17;59.76
71344;BME280;59146;43.850;25.948;2023-02-23T08:12:32;101376.25;;;9.74;58.87
71344;BME280;59146;43.850;25.948;2023-02-23T08:14:58;101340.41;;;9.59;58.46
71344;BME280;59146;43.850;25.948;2023-02-23T08:17:24;101385.53;;;9.61;59.47
71344;BME280;59146;43.850;25.948;2023-02-23T08:19:49;101386.16;;;9.66;59.32
71344;BME280;59146;43.850;25.948;2023-02-23T08:22:15;101398.94;;;9.72;59.45
71344;BME280;59146;43.850;25.948;2023-02-23T08:24:40;101391.41;;;9.86;59.17
71344;BME280;59146;43.850;25.948;2023-02-23T08:27:06;101366.44;;;9.99;58.35
71344;BME280;59146;43.850;25.948;2023-02-23T08:29:31;101390.38;;;10.29;57.88
71344;BME280;59146;43.850;25.948;2023-02-23T08:32:01;101353.75;;;9.92;58.27
71344;BME280;59146;43.850;25.948;2023-02-23T08:34:27;101348.78;;;9.86;58.64
71344;BME280;59146;43.850;25.948;2023-02-23T08:36:52;101368.50;;;10.31;57.96
71344;BME280;59146;43.850;25.948;2023-02-23T08:39:18;101416.56;;;10.83;57.23
71344;BME280;59146;43.850;25.948;2023-02-23T08:41:43;101267.25;;;9.99;57.05
71344;BME280;59146;43.850;25.948;2023-02-23T08:44:09;101397.00;;;10.55;58.17
71344;BME280;59146;43.850;25.948;2023-02-23T08:46:34;101357.34;;;10.47;58.24
71344;BME280;59146;43.850;25.948;2023-02-23T08:49:00;101411.41;;;11.17;58.20
71344;BME280;59146;43.850;25.948;2023-02-23T08:51:25;101404.56;;;11.15;56.68
71344;BME280;59146;43.850;25.948;2023-02-23T08:53:51;101323.41;;;10.82;55.78
71344;BME280;59146;43.850;25.948;2023-02-23T08:56:16;101364.13;;;11.22;56.41
71344;BME280;59146;43.850;25.948;2023-02-23T08:58:42;101421.28;;;11.47;58.17
71344;BME280;59146;43.850;25.948;2023-02-23T09:01:14;101324.03;;;11.04;57.87
71344;BME280;59146;43.850;25.948;2023-02-23T09:03:41;101366.72;;;11.56;56.93
71344;BME280;59146;43.850;25.948;2023-02-23T09:06:10;101356.13;;;11.76;56.01
71344;BME280;59146;43.850;25.948;2023-02-23T09:08:36;101397.06;;;11.77;55.94
71344;BME280;59146;43.850;25.948;2023-02-23T09:11:04;101378.22;;;11.37;57.19
71344;BME280;59146;43.850;25.948;2023-02-23T09:13:29;101346.59;;;11.41;56.98
71344;BME280;59146;43.850;25.948;2023-02-23T09:15:55;101399.66;;;11.94;56.58
71344;BME280;59146;43.850;25.948;2023-02-23T09:18:20;101418.47;;;11.85;56.52
71344;BME280;59146;43.850;25.948;2023-02-23T09:20:48;101351.66;;;11.27;57.25
71344;BME280;59146;43.850;25.948;2023-02-23T09:23:14;101407.19;;;11.32;58.22
71344;BME280;59146;43.850;25.948;2023-02-23T09:25:40;101391.22;;;11.55;57.48
71344;BME280;59146;43.850;25.948;2023-02-23T09:28:17;101392.78;;;11.76;57.05
71344;BME280;59146;43.850;25.948;2023-02-23T09:30:44;101403.59;;;11.86;56.76
71344;BME280;59146;43.850;25.948;2023-02-23T09:33:10;101406.53;;;11.80;57.36
71344;BME280;59146;43.850;25.948;2023-02-23T09:35:36;101387.84;;;11.70;57.22
71344;BME280;59146;43.850;25.948;2023-02-23T09:38:03;101290.03;;;11.04;57.47
71344;BME280;59146;43.850;25.948;2023-02-23T09:40:48;101394.50;;;11.59;58.09
71344;BME280;59146;43.850;25.948;2023-02-23T09:49:14;101371.22;;;11.71;56.45
71344;BME280;59146;43.850;25.948;2023-02-23T09:51:46;101380.50;;;11.60;57.17
71344;BME280;59146;43.850;25.948;2023-02-23T09:54:15;101357.59;;;11.31;57.47
71344;BME280;59146;43.850;25.948;2023-02-23T09:56:44;101397.06;;;11.77;57.20
71344;BME280;59146;43.850;25.948;2023-02-23T09:59:14;101378.72;;;11.94;56.38
71344;BME280;59146;43.850;25.948;2023-02-23T10:04:21;101443.66;;;12.38;55.38
71344;BME280;59146;43.850;25.948;2023-02-23T10:07:02;101420.38;;;11.99;56.44
71344;BME280;59146;43.850;25.948;2023-02-23T10:12:28;101425.03;;;12.42;55.58
71344;BME280;59146;43.850;25.948;2023-02-23T10:22:44;101399.78;;;12.09;56.63
71344;BME280;59146;43.850;25.948;2023-02-23T10:25:16;101337.78;;;12.09;55.46
71344;BME280;59146;43.850;25.948;2023-02-23T10:27:46;101413.50;;;12.93;54.14
71344;BME280;59146;43.850;25.948;2023-02-23T10:33:04;101308.47;;;12.34;53.59
71344;BME280;59146;43.850;25.948;2023-02-23T10:35:32;101422.31;;;12.92;53.46
71344;BME280;59146;43.850;25.948;2023-02-23T10:37:59;101336.13;;;12.55;53.42
71344;BME280;59146;43.850;25.948;2023-02-23T10:40:27;101404.78;;;13.08;52.52
71344;BME280;59146;43.850;25.948;2023-02-23T10:42:54;101359.22;;;12.80;52.83
71344;BME280;59146;43.850;25.948;2023-02-23T10:45:23;101397.00;;;12.60;53.87
71344;BME280;59146;43.850;25.948;2023-02-23T10:48:15;101362.44;;;12.38;53.90
71344;BME280;59146;43.850;25.948;2023-02-23T10:50:41;101368.25;;;12.74;53.31
71344;BME280;59146;43.850;25.948;2023-02-23T10:53:18;101394.34;;;13.22;52.85
71344;BME280;59146;43.850;25.948;2023-02-23T10:55:59;101329.94;;;12.40;53.59
71344;BME280;59146;43.850;25.948;2023-02-23T10:58:25;101364.63;;;12.45;54.37
71344;BME280;59146;43.850;25.948;2023-02-23T11:00:56;101401.00;;;12.67;54.00
71344;BME280;59146;43.850;25.948;2023-02-23T11:03:44;101381.91;;;12.95;53.38
71344;BME280;59146;43.850;25.948;2023-02-23T11:06:33;101380.56;;;13.03;53.13
71344;BME280;59146;43.850;25.948;2023-02-23T11:11:55;101322.25;;;12.53;53.15
71344;BME280;59146;43.850;25.948;2023-02-23T11:14:24;101325.38;;;12.28;53.81
71344;BME280;59146;43.850;25.948;2023-02-23T11:16:52;101272.75;;;12.33;52.89
71344;BME280;59146;43.850;25.948;2023-02-23T11:19:34;101238.25;;;12.56;52.16
71344;BME280;59146;43.850;25.948;2023-02-23T11:22:02;101330.34;;;12.95;51.99
71344;BME280;59146;43.850;25.948;2023-02-23T11:24:33;101315.31;;;12.83;52.28
71344;BME280;59146;43.850;25.948;2023-02-23T11:27:02;101353.53;;;12.87;52.16
71344;BME280;59146;43.850;25.948;2023-02-23T11:32:25;101376.69;;;13.10;52.08
71344;BME280;59146;43.850;25.948;2023-02-23T11:37:43;101325.59;;;12.86;51.92
71344;BME280;59146;43.850;25.948;2023-02-23T11:40:30;101356.00;;;13.35;51.31
71344;BME280;59146;43.850;25.948;2023-02-23T11:43:14;101327.47;;;12.84;51.74
71344;BME280;59146;43.850;25.948;2023-02-23T11:45:46;101355.19;;;13.19;51.38
71344;BME280;59146;43.850;25.948;2023-02-23T11:48:21;101347.88;;;13.24;51.33
71344;BME280;59146;43.850;25.948;2023-02-23T11:50:51;101329.91;;;13.32;50.57
71344;BME280;59146;43.850;25.948;2023-02-23T11:53:23;101374.84;;;13.42;50.81
71344;BME280;59146;43.850;25.948;2023-02-23T11:55:54;101354.88;;;13.39;50.46
71344;BME280;59146;43.850;25.948;2023-02-23T11:58:39;101376.22;;;13.77;50.28
71344;BME280;59146;43.850;25.948;2023-02-23T12:01:11;101383.66;;;13.99;49.12
71344;BME280;59146;43.850;25.948;2023-02-23T12:03:54;101383.75;;;14.11;48.79
71344;BME280;59146;43.850;25.948;2023-02-23T12:06:33;101348.94;;;13.94;48.36
71344;BME280;59146;43.850;25.948;2023-02-23T12:09:05;101343.13;;;13.75;48.69
71344;BME280;59146;43.850;25.948;2023-02-23T12:11:42;101325.13;;;13.69;48.41
71344;BME280;59146;43.850;25.948;2023-02-23T12:14:23;101386.25;;;13.85;48.38
71344;BME280;59146;43.850;25.948;2023-02-23T12:16:56;101331.00;;;13.44;48.24
71344;BME280;59146;43.850;25.948;2023-02-23T12:19:25;101385.47;;;13.54;48.42
71344;BME280;59146;43.850;25.948;2023-02-23T12:22:05;101391.91;;;13.04;50.24
71344;BME280;59146;43.850;25.948;2023-02-23T12:27:33;101351.25;;;13.56;48.23
71344;BME280;59146;43.850;25.948;2023-02-23T12:30:28;101328.72;;;13.08;48.49
71344;BME280;59146;43.850;25.948;2023-02-23T12:33:01;101394.38;;;13.52;48.29
71344;BME280;59146;43.850;25.948;2023-02-23T12:35:41;101406.69;;;13.66;47.65
71344;BME280;59146;43.850;25.948;2023-02-23T12:38:27;101398.88;;;13.64;46.73
71344;BME280;59146;43.850;25.948;2023-02-23T12:41:12;101324.75;;;13.17;47.02
71344;BME280;59146;43.850;25.948;2023-02-23T12:46:29;101407.06;;;13.30;47.93
71344;BME280;59146;43.850;25.948;2023-02-23T12:51:59;101404.91;;;13.36;47.05
71344;BME280;59146;43.850;25.948;2023-02-23T12:54:26;101334.50;;;12.68;47.69
71344;BME280;59146;43.850;25.948;2023-02-23T13:02:32;101396.06;;;12.92;48.20
71344;BME280;59146;43.850;25.948;2023-02-23T13:08:07;101415.69;;;12.85;47.60
71344;BME280;59146;43.850;25.948;2023-02-23T13:13:45;101330.53;;;12.30;48.55
71344;BME280;59146;43.850;25.948;2023-02-23T13:21:34;101397.59;;;12.96;47.72
71344;BME280;59146;43.850;25.948;2023-02-23T13:24:16;101408.09;;;12.96;47.74
71344;BME280;59146;43.850;25.948;2023-02-23T13:29:32;101423.47;;;13.02;47.06
71344;BME280;59146;43.850;25.948;2023-02-23T13:32:01;101371.56;;;12.62;47.19
71344;BME280;59146;43.850;25.948;2023-02-23T13:34:38;101362.94;;;12.60;47.25
71344;BME280;59146;43.850;25.948;2023-02-23T13:37:07;101386.50;;;12.91;46.88
71344;BME280;59146;43.850;25.948;2023-02-23T13:40:00;101407.72;;;12.87;46.89
71344;BME280;59146;43.850;25.948;2023-02-23T13:42:38;101412.63;;;12.93;46.94
71344;BME280;59146;43.850;25.948;2023-02-23T13:45:27;101411.91;;;12.75;47.39
71344;BME280;59146;43.850;25.948;2023-02-23T13:50:38;101379.03;;;12.99;46.23
71344;BME280;59146;43.850;25.948;2023-02-23T13:53:13;101273.94;;;12.27;46.29
71344;BME280;59146;43.850;25.948;2023-02-23T13:55:51;101351.28;;;12.50;46.74
71344;BME280;59146;43.850;25.948;2023-02-23T13:58:29;101358.09;;;12.68;46.55
71344;BME280;59146;43.850;25.948;2023-02-23T14:03:34;101421.34;;;13.24;46.09
71344;BME280;59146;43.850;25.948;2023-02-23T14:06:02;101334.78;;;12.32;51.00
71344;BME280;59146;43.850;25.948;2023-02-23T14:08:36;101297.38;;;11.82;52.50
71344;BME280;59146;43.850;25.948;2023-02-23T14:11:04;101361.88;;;12.16;53.59
71344;BME280;59146;43.850;25.948;2023-02-23T14:13:40;101431.13;;;12.43;54.01
71344;BME280;59146;43.850;25.948;2023-02-23T14:16:18;101379.34;;;12.00;50.69
71344;BME280;59146;43.850;25.948;2023-02-23T14:23:50;101439.03;;;12.58;47.10
71344;BME280;59146;43.850;25.948;2023-02-23T14:26:34;101356.31;;;12.22;47.98
71344;BME280;59146;43.850;25.948;2023-02-23T14:32:02;101407.81;;;12.54;49.25
71344;BME280;59146;43.850;25.948;2023-02-23T14:34:50;101379.06;;;12.37;46.92
71344;BME280;59146;43.850;25.948;2023-02-23T14:39:52;101358.94;;;12.22;46.60
71344;BME280;59146;43.850;25.948;2023-02-23T14:42:27;101403.09;;;12.76;46.54
71344;BME280;59146;43.850;25.948;2023-02-23T14:44:55;101363.44;;;12.51;45.52
71344;BME280;59146;43.850;25.948;2023-02-23T14:47:25;101404.88;;;12.60;45.62
71344;BME280;59146;43.850;25.948;2023-02-23T14:49:59;101449.31;;;12.46;46.15
71344;BME280;59146;43.850;25.948;2023-02-23T14:52:34;101388.16;;;12.30;46.17
71344;BME280;59146;43.850;25.948;2023-02-23T14:57:37;101396.66;;;12.50;45.94